• Join FlightAware (Why Join?)
  • Login
  • US Flag 
03:31AM EDT


 

Airport Tracker/Info


-or-


 

Live Flight TrackerFlight Track Log ✈ TAM3516 ✈ 23-Aug-2013 ✈ SBGR / GRU - SBRF / REC

Flight Track Log - Related Links

Times and Time Zones

All times are in EDT time to prevent confusion due to time zone crossing. See the TAM3516 flight status page for this flight to view local times or setup timezone preferences in your user account.

Time Position Orientation Groundspeed Altitude Reporting Facility
EDT Latitude Longitude Course Direction KTS MPH feet Rate Location/Type
04:27PM -23.4290 -46.4630 84° East 145 167  Level FlightAware
04:27PM -23.4350 -46.4880 255° West 176 203 2,900 4,440 Climbing FlightAware
04:27PM -23.4400 -46.5050 252° West 176 203 3,700 2,100 Climbing FlightAware
04:28PM -23.4440 -46.5230 256° West 181 208 4,300 1,620 Climbing FlightAware
04:28PM -23.4490 -46.5400 252° West 183 211 4,800 1,680 Climbing FlightAware
04:28PM -23.4530 -46.5540 253° West 185 213 5,300 1,620 Climbing FlightAware
04:29PM -23.4560 -46.5580 231° Southwest 182 209 5,400 1,200 Climbing FlightAware
04:29PM -23.4630 -46.5620 208° Southwest 195 224 5,600 900 Climbing FlightAware
04:29PM -23.4680 -46.5640 200° South 195 224 5,600 600 Level FlightAware
04:29PM -23.4720 -46.5640 180° South 209 241 5,700 720 Climbing FlightAware
04:29PM -23.4910 -46.5560 159° South 228 262 5,900 600 Climbing FlightAware
04:29PM -23.4980 -46.5470 130° Southeast 234 269 6,000 600 Climbing FlightAware
04:29PM -23.5030 -46.5350 114° Southeast 252 290 6,100 960 Climbing FlightAware
04:30PM -23.5090 -46.5090 104° East 275 316 6,500 1,620 Climbing FlightAware
04:30PM -23.5100 -46.4810 92° East 285 328 7,200 1,680 Climbing FlightAware
04:31PM -23.5020 -46.4360 79° East 285 328 8,000 1,020 Climbing FlightAware
04:31PM -23.4920 -46.4170 60° Northeast 283 326 8,000  Level FlightAware
04:31PM -23.4790 -46.3960 56° Northeast 282 325 8,000 300 Level FlightAware
04:32PM -23.4650 -46.3720 58° Northeast 283 326 8,200 1,500 Climbing FlightAware
04:32PM -23.4510 -46.3480 58° Northeast 285 328 9,000 2,520 Climbing FlightAware
04:32PM -23.4270 -46.3050 59° Northeast 286 329 10,500 2,040 Climbing FlightAware
04:33PM -23.4020 -46.2600 59° Northeast 313 360 11,400 1,560 Climbing FlightAware
04:33PM -23.3870 -46.2430 46° Northeast 320 368 11,800 1,920 Climbing FlightAware
04:34PM -23.3660 -46.2330 24° Northeast 312 359 12,400 2,580 Climbing FlightAware
04:34PM -23.3230 -46.2240 11° North 297 342 13,800 1,920 Climbing FlightAware
04:35PM -23.2730 -46.2130 11° North 327 376 14,500 900 Climbing FlightAware
04:35PM -23.2180 -46.2010 11° North 349 402 14,900 1,320 Climbing FlightAware
04:36PM -23.1520 -46.1860 12° North 361 415 16,200 1,860 Climbing FlightAware
04:36PM -23.1020 -46.1740 12° North 366 421 17,100 1,560 Climbing FlightAware
04:37PM -23.0450 -46.1540 18° North 373 429 17,900 1,320 Climbing FlightAware
04:38PM -22.9760 -46.1270 20° North 394 453 18,800 1,560 Climbing FlightAware
04:38PM -22.9160 -46.1040 19° North 395 455 19,900 1,560 Climbing FlightAware
04:39PM -22.8630 -46.0840 19° North 394 453 20,500 1,380 Climbing FlightAware
04:39PM -22.8030 -46.0610 19° North 406 467 21,400 1,500 Climbing FlightAware
04:40PM -22.7380 -46.0360 20° North 409 471 22,300 1,320 Climbing FlightAware
04:41PM -22.6770 -46.0130 19° North 408 470 23,000 1,140 Climbing FlightAware
04:41PM -22.6120 -45.9880 20° North 423 487 23,700 1,020 Climbing FlightAware
04:42PM -22.5570 -45.9670 19° North 428 493 24,200 900 Climbing FlightAware
04:42PM -22.4800 -45.9380 19° North 431 496 24,800 900 Climbing FlightAware
04:43PM -22.4030 -45.9080 20° North 441 507 25,400 960 Climbing FlightAware
04:44PM -22.3320 -45.8810 19° North 448 516 26,000 960 Climbing FlightAware
04:44PM -22.2740 -45.8590 19° North 459 528 26,500 1,080 Climbing FlightAware
04:45PM -22.1920 -45.8280 19° North 462 532 27,300 1,080 Climbing FlightAware
04:45PM -22.1330 -45.8050 20° North 458 527 27,800 960 Climbing FlightAware
04:46PM -22.0590 -45.7770 19° North 460 529 28,400 960 Climbing FlightAware
04:46PM -21.9770 -45.7470 19° North 465 535 29,000 840 Climbing FlightAware
04:47PM -21.9040 -45.7190 20° North 477 549 29,500 720 Climbing FlightAware
04:48PM -21.8430 -45.6960 19° North 481 554 29,800 1,140 Climbing FlightAware
04:48PM -21.7670 -45.6670 20° North 464 534 30,800 1,200 Climbing FlightAware
04:49PM -21.6970 -45.6410 19° North 476 548 31,200 780 Climbing FlightAware
04:49PM -21.6240 -45.6120 20° North 479 551 31,700 960 Climbing FlightAware
04:50PM -21.5940 -45.5930 30° Northeast 475 547 32,000 1,080 Climbing FlightAware
04:50PM -21.5150 -45.5310 36° Northeast 480 552 32,800 1,080 Climbing FlightAware
04:51PM -21.4600 -45.4880 36° Northeast 477 549 33,400 1,020 Climbing FlightAware
04:51PM -21.3870 -45.4320 36° Northeast 474 545 34,000 900 Climbing FlightAware
04:52PM -21.3350 -45.3920 36° Northeast 472 543 34,500 900 Climbing FlightAware
04:53PM -21.2750 -45.3460 36° Northeast 464 534 35,000 360 Climbing FlightAware
04:53PM -21.2010 -45.2900 35° Northeast 462 532 35,000  Level FlightAware
04:54PM -21.1430 -45.2450 36° Northeast 469 540 35,000  Level FlightAware
04:54PM -21.0850 -45.2010 35° Northeast 468 539 35,000  Level FlightAware
04:55PM -21.0190 -45.1510 35° Northeast 467 537 35,000  Level FlightAware
04:56PM -20.9570 -45.1030 36° Northeast 464 534 35,000  Level FlightAware
04:56PM -20.8970 -45.0570 36° Northeast 464 534 35,000  Level FlightAware
04:57PM -20.8370 -45.0120 35° Northeast 469 540 35,000  Level FlightAware
04:57PM -20.7720 -44.9620 36° Northeast 470 541 35,000  Level FlightAware
04:58PM -20.7140 -44.9180 35° Northeast 473 544 35,000  Level FlightAware
04:58PM -20.6480 -44.8690 35° Northeast 473 544 35,000  Level FlightAware
04:59PM -20.5840 -44.8200 36° Northeast 474 545 35,000  Level FlightAware
05:00PM -20.5230 -44.7740 35° Northeast 474 545 35,000  Level FlightAware
05:00PM -20.4570 -44.7240 35° Northeast 474 545 35,000  Level FlightAware
05:01PM -20.3930 -44.6760 35° Northeast 474 545 35,000  Level FlightAware
05:01PM -20.3320 -44.6290 36° Northeast 474 545 35,000  Level FlightAware
05:02PM -20.2590 -44.5740 35° Northeast 475 547 35,000  Level FlightAware
05:03PM -20.1960 -44.5270 35° Northeast 477 549 35,000  Level FlightAware
05:03PM -20.1240 -44.4720 36° Northeast 478 550 35,000  Level FlightAware
05:04PM -20.0700 -44.4320 35° Northeast 481 554 35,000  Level FlightAware
05:04PM -20.0060 -44.3840 35° Northeast 482 555 35,000  Level FlightAware
05:05PM -19.9420 -44.3360 35° Northeast 483 556 35,000  Level FlightAware
05:06PM -19.8780 -44.2880 35° Northeast 484 557 35,000  Level FlightAware
05:06PM -19.8140 -44.2400 35° Northeast 484 557 35,000  Level FlightAware
05:07PM -19.7490 -44.1920 35° Northeast 483 556 35,000  Level FlightAware
05:07PM -19.6890 -44.1470 35° Northeast 482 555 35,000  Level FlightAware
05:08PM -19.6210 -44.0970 35° Northeast 481 554 35,000  Level FlightAware
05:08PM -19.5580 -44.0530 33° Northeast 479 551 35,000  Level FlightAware
05:09PM -19.4910 -44.0170 27° Northeast 474 545 35,000  Level FlightAware
05:10PM -19.4220 -43.9840 24° Northeast 473 544 35,000  Level FlightAware
05:10PM -19.3400 -43.9440 25° Northeast 472 543 35,000  Level FlightAware
05:11PM -19.2800 -43.9150 25° Northeast 473 544 35,000 -120 Level FlightAware
05:11PM -19.2110 -43.8820 24° Northeast 474 545 34,900  Descending FlightAware
05:12PM -19.1330 -43.8440 25° Northeast 477 549 35,000 60 Climbing FlightAware
05:12PM -19.0690 -43.8140 24° Northeast 479 551 35,000  Level FlightAware
05:13PM -18.9980 -43.7800 24° Northeast 481 554 35,000  Level FlightAware
05:14PM -18.9280 -43.7460 25° Northeast 481 554 35,000  Level FlightAware
05:14PM -18.8600 -43.7140 24° Northeast 478 550 35,000  Level FlightAware
05:15PM -18.7780 -43.6740 25° Northeast 477 549 35,000  Level FlightAware
05:15PM -18.7060 -43.6400 24° Northeast 476 548 35,000  Level FlightAware
05:16PM -18.6360 -43.6070 24° Northeast 474 545 35,000  Level FlightAware
05:17PM -18.5750 -43.5780 24° Northeast 474 545 35,000  Level FlightAware
05:17PM -18.5070 -43.5390 29° Northeast 474 545 35,000  Level FlightAware
05:18PM -18.4440 -43.4920 35° Northeast 475 547 35,000  Level FlightAware
05:18PM -18.3760 -43.4370 38° Northeast 476 548 35,000  Level FlightAware
05:19PM -18.3210 -43.3940 37° Northeast 478 550 35,000  Level FlightAware
05:20PM -18.2510 -43.3380 37° Northeast 478 550 35,000  Level FlightAware
05:20PM -18.1980 -43.2950 38° Northeast 477 549 35,000  Level FlightAware
05:21PM -18.1370 -43.2460 37° Northeast 477 549 35,000  Level FlightAware
05:21PM -18.0660 -43.1890 37° Northeast 479 551 35,000  Level FlightAware
05:22PM -18.0040 -43.1400 37° Northeast 479 551 35,000  Level FlightAware
05:22PM -17.9520 -43.0980 38° Northeast 480 552 35,000  Level FlightAware
05:23PM -17.8910 -43.0500 37° Northeast 481 554 35,000  Level FlightAware
05:24PM -17.8210 -42.9940 37° Northeast 483 556 35,000  Level FlightAware
05:24PM -17.7650 -42.9490 37° Northeast 483 556 35,000  Level FlightAware
05:25PM -17.7010 -42.8990 37° Northeast 482 555 35,000  Level FlightAware
05:25PM -17.6350 -42.8460 37° Northeast 479 551 35,000  Level FlightAware
05:26PM -17.5780 -42.8010 37° Northeast 476 548 35,000  Level FlightAware
05:26PM -17.5200 -42.7550 37° Northeast 475 547 35,000  Level FlightAware
05:27PM -17.4550 -42.7040 37° Northeast 474 545 35,000  Level FlightAware
05:28PM -17.3850 -42.6480 37° Northeast 475 547 35,000  Level FlightAware
05:28PM -17.3320 -42.6060 37° Northeast 475 547 35,000  Level FlightAware
05:29PM -17.2540 -42.5440 37° Northeast 476 548 35,000  Level FlightAware
05:30PM -17.1930 -42.4960 37° Northeast 478 550 35,000  Level FlightAware
05:30PM -17.1200 -42.4390 37° Northeast 479 551 35,000  Level FlightAware
05:31PM -17.0610 -42.3910 38° Northeast 479 551 35,000  Level FlightAware
05:31PM -17.0030 -42.3460 37° Northeast 479 551 35,000  Level FlightAware
05:32PM -16.9480 -42.3030 37° Northeast 479 551 35,000  Level FlightAware
05:33PM -16.8580 -42.2320 37° Northeast 476 548 35,000  Level FlightAware
05:33PM -16.8050 -42.1900 37° Northeast 475 547 35,000  Level FlightAware
05:34PM -16.7240 -42.1280 36° Northeast 474 545 35,000  Level FlightAware
05:35PM -16.6650 -42.0840 36° Northeast 474 545 35,000  Level FlightAware
05:35PM -16.6100 -42.0440 35° Northeast 474 545 35,000  Level FlightAware
05:36PM -16.5550 -42.0040 35° Northeast 474 545 35,000  Level FlightAware
05:37PM -16.5000 -41.9640 35° Northeast 474 545 35,000  Level FlightAware
05:37PM -16.4450 -41.9240 35° Northeast 474 545 35,000  Level FlightAware
05:38PM -16.3850 -41.8800 35° Northeast 474 545 35,000  Level FlightAware
05:38PM -16.3300 -41.8400 35° Northeast 474 545 35,000  Level FlightAware
05:39PM -16.2750 -41.8000 35° Northeast 474 545 35,000  Level FlightAware
05:40PM -16.2230 -41.7620 35° Northeast 474 545 35,000  Level FlightAware
05:40PM -16.1650 -41.7200 35° Northeast 474 545 35,000  Level FlightAware
05:41PM -16.1090 -41.6790 35° Northeast 474 545 35,000  Level FlightAware
05:41PM -16.0540 -41.6390 35° Northeast 474 545 35,000  Level FlightAware
05:42PM -15.9990 -41.5990 35° Northeast 474 545 35,000  Level FlightAware
05:43PM -15.9420 -41.5570 35° Northeast 474 545 35,000  Level FlightAware
05:43PM -15.8870 -41.5170 35° Northeast 474 545 35,000  Level FlightAware
05:44PM -15.8330 -41.4770 35° Northeast 474 545 35,000  Level FlightAware
05:46PM -15.6708 -41.3332 40° Northeast  Level Estimated
05:47PM -15.5762 -41.2495 40° Northeast  Level Estimated
05:48PM -15.4817 -41.1659 40° Northeast  Level Estimated
05:49PM -15.3871 -41.0824 40° Northeast  Level Estimated
05:50PM -15.2924 -40.9990 40° Northeast  Level Estimated
05:51PM -15.1978 -40.9156 40° Northeast  Level Estimated
05:52PM -15.1031 -40.8323 40° Northeast  Level Estimated
05:53PM -15.0084 -40.7491 40° Northeast  Level Estimated
05:54PM -14.9136 -40.6659 40° Northeast  Level Estimated
05:55PM -14.8188 -40.5829 40° Northeast  Level Estimated
05:56PM -14.7240 -40.4999 40° Northeast  Level Estimated
05:57PM -14.6292 -40.4169 40° Northeast  Level Estimated
05:58PM -14.5343 -40.3341 40° Northeast  Level Estimated
05:59PM -14.4394 -40.2513 40° Northeast  Level Estimated
06:00PM -14.3444 -40.1686 40° Northeast  Level Estimated
06:01PM -14.2495 -40.0859 40° Northeast  Level Estimated
06:02PM -14.1545 -40.0034 40° Northeast  Level Estimated
06:03PM -14.0595 -39.9208 40° Northeast  Level Estimated
06:04PM -13.9644 -39.8384 40° Northeast  Level Estimated
06:05PM -13.8694 -39.7560 40° Northeast  Level Estimated
06:05PM -13.3090 -39.7530 40° Northeast 470 541 35,000  Level FlightAware
06:06PM -13.2360 -39.6860 42° Northeast 469 540 35,000  Level FlightAware
06:07PM -13.1850 -39.6390 42° Northeast 470 541 35,000  Level FlightAware
06:07PM -13.1270 -39.5850 42° Northeast 470 541 35,000  Level FlightAware
06:08PM -13.0680 -39.5310 42° Northeast 469 540 35,000  Level FlightAware
06:08PM -13.0130 -39.4810 42° Northeast 468 539 35,000  Level FlightAware
06:09PM -12.9560 -39.4290 42° Northeast 468 539 35,000  Level FlightAware
06:09PM -12.9020 -39.3790 42° Northeast 468 539 35,000  Level FlightAware
06:10PM -12.8500 -39.3310 42° Northeast 467 537 35,000  Level FlightAware
06:11PM -12.7850 -39.2720 42° Northeast 468 539 35,000  Level FlightAware
06:11PM -12.7290 -39.2210 42° Northeast 468 539 35,000  Level FlightAware
06:12PM -12.6780 -39.1740 42° Northeast 468 539 35,000  Level FlightAware
06:12PM -12.6190 -39.1210 41° Northeast 468 539 35,000  Level FlightAware
06:13PM -12.5620 -39.0680 42° Northeast 466 536 35,000  Level FlightAware
06:14PM -12.5040 -39.0150 42° Northeast 465 535 35,000  Level FlightAware
06:14PM -12.4450 -38.9620 41° Northeast 464 534 35,000  Level FlightAware
06:15PM -12.3940 -38.9150 42° Northeast 464 534 35,000  Level FlightAware
06:15PM -12.3360 -38.8620 42° Northeast 464 534 35,000  Level FlightAware
06:16PM -12.2790 -38.8100 42° Northeast 465 535 35,000  Level FlightAware
06:16PM -12.2280 -38.7640 41° Northeast 465 535 35,000  Level FlightAware
06:17PM -12.1680 -38.7100 41° Northeast 466 536 35,000  Level FlightAware
06:18PM -12.1080 -38.6550 42° Northeast 466 536 35,000  Level FlightAware
06:18PM -12.0510 -38.6020 42° Northeast 466 536 35,000  Level FlightAware
06:19PM -11.9980 -38.5550 41° Northeast 468 539 35,000  Level FlightAware
06:19PM -11.9400 -38.5020 42° Northeast 468 539 35,000  Level FlightAware
06:20PM -11.8810 -38.4480 42° Northeast 468 539 35,000  Level FlightAware
06:21PM -11.8310 -38.4030 41° Northeast 468 539 35,000  Level FlightAware
06:21PM -11.7740 -38.3520 41° Northeast 467 537 35,000  Level FlightAware
06:22PM -11.7130 -38.2970 41° Northeast 466 536 35,000  Level FlightAware
06:22PM -11.6550 -38.2440 42° Northeast 464 534 35,000  Level FlightAware
06:23PM -11.6030 -38.1970 42° Northeast 466 536 35,000  Level FlightAware
06:24PM -11.5420 -38.1420 41° Northeast 465 535 35,000  Level FlightAware
06:24PM -11.4910 -38.0960 41° Northeast 465 535 35,000  Level FlightAware
06:25PM -11.4320 -38.0430 41° Northeast 466 536 35,000  Level FlightAware
06:25PM -11.3710 -37.9880 41° Northeast 466 536 35,000  Level FlightAware
06:26PM -11.3190 -37.9410 42° Northeast 466 536 35,000  Level FlightAware
06:26PM -11.2610 -37.8880 42° Northeast 467 537 35,000  Level FlightAware
06:27PM -11.2090 -37.8410 42° Northeast 468 539 35,000  Level FlightAware
06:28PM -11.1440 -37.7840 41° Northeast 468 539 35,000  Level FlightAware
06:28PM -11.0920 -37.7370 42° Northeast 468 539 35,000  Level FlightAware
06:29PM -11.0390 -37.6890 42° Northeast 468 539 35,000  Level FlightAware
06:29PM -10.9810 -37.6370 41° Northeast 467 537 35,000  Level FlightAware
06:30PM -10.9250 -37.5860 42° Northeast 468 539 35,000  Level FlightAware
06:30PM -10.8640 -37.5310 42° Northeast 469 540 35,000  Level FlightAware
06:31PM -10.8050 -37.4790 41° Northeast 469 540 35,000  Level FlightAware
06:32PM -10.7540 -37.4330 42° Northeast 471 542 35,000  Level FlightAware
06:32PM -10.7010 -37.3860 41° Northeast 471 542 35,000  Level FlightAware
06:33PM -10.6340 -37.3260 41° Northeast 473 544 35,000  Level FlightAware
06:34PM -10.5610 -37.2600 42° Northeast 473 544 35,000  Level FlightAware
06:34PM -10.5060 -37.2110 41° Northeast 473 544 35,000  Level FlightAware
06:35PM -10.4430 -37.1550 41° Northeast 472 543 35,000  Level FlightAware
06:36PM -10.3700 -37.0900 41° Northeast 472 543 35,000  Level FlightAware
06:36PM -10.3190 -37.0440 42° Northeast 471 542 35,000  Level FlightAware
06:37PM -10.2650 -36.9960 41° Northeast 471 542 35,000  Level FlightAware
06:37PM -10.2010 -36.9390 41° Northeast 471 542 35,000  Level FlightAware
06:38PM -10.1480 -36.8920 41° Northeast 471 542 35,000  Level FlightAware
06:38PM -10.0970 -36.8470 41° Northeast 471 542 35,000  Level FlightAware
06:39PM -10.0460 -36.8020 41° Northeast 471 542 35,000  Level FlightAware
06:40PM -9.9950 -36.7570 41° Northeast 471 542 35,000  Level FlightAware
06:40PM -9.9450 -36.7130 41° Northeast 471 542 35,000  Level FlightAware
06:41PM -9.8930 -36.6670 41° Northeast 471 542 35,000  Level FlightAware
06:41PM -9.8430 -36.6230 41° Northeast 471 542 35,000  Level FlightAware
06:42PM -9.7930 -36.5780 42° Northeast 471 542 35,000  Level FlightAware
06:43PM -9.7410 -36.5330 40° Northeast 471 542 35,000  Level FlightAware
06:43PM -9.6930 -36.4910 41° Northeast 471 542 35,000  Level FlightAware
06:44PM -9.6430 -36.4470 41° Northeast 471 542 35,000  Level FlightAware
06:44PM -9.5910 -36.4010 41° Northeast 471 542 35,000  Level FlightAware
06:45PM -9.5410 -36.3570 41° Northeast 471 542 35,000  Level FlightAware
06:46PM -9.4910 -36.3120 42° Northeast 471 542 35,000  Level FlightAware
06:46PM -9.4400 -36.2680 40° Northeast 471 542 35,000 -3,780 Level FlightAware
06:47PM -9.2460 -36.0910 42° Northeast 449 517 30,300 -4,920 Descending FlightAware
06:47PM -9.2010 -36.0510 41° Northeast 442 509 29,300 -2,100 Descending FlightAware
06:48PM -9.1280 -35.9860 41° Northeast 432 497 27,700 -2,040 Descending FlightAware
06:49PM -9.0780 -35.9420 41° Northeast 424 488 26,600 -1,980 Descending FlightAware
06:49PM -9.0170 -35.8880 41° Northeast 415 478 25,200 -2,640 Descending FlightAware
06:50PM -8.9640 -35.8450 39° Northeast 426 490 23,300 -2,940 Descending FlightAware
06:51PM -8.9100 -35.8040 37° Northeast 425 489 21,800 -2,340 Descending FlightAware
06:51PM -8.8550 -35.7610 38° Northeast 410 472 20,600 -2,100 Descending FlightAware
06:52PM -8.8030 -35.7200 38° Northeast 399 459 19,400 -1,800 Descending FlightAware
06:52PM -8.7560 -35.6830 38° Northeast 385 443 18,500 -1,740 Descending FlightAware
06:53PM -8.7060 -35.6430 38° Northeast 375 432 17,400 -1,740 Descending FlightAware
06:54PM -8.6620 -35.6080 38° Northeast 365 420 16,500 -1,560 Descending FlightAware
06:54PM -8.6060 -35.5650 37° Northeast 349 402 15,400 -1,620 Descending FlightAware
06:55PM -8.5640 -35.5310 39° Northeast 341 392 14,500 -1,620 Descending FlightAware
06:55PM -8.5240 -35.4990 38° Northeast 332 382 13,700 -1,500 Descending FlightAware
06:56PM -8.4770 -35.4620 38° Northeast 328 377 12,700 -1,680 Descending FlightAware
06:57PM -8.4340 -35.4290 37° Northeast 326 375 11,700 -1,620 Descending FlightAware
06:57PM -8.3830 -35.3890 38° Northeast 323 372 10,700 -1,200 Descending FlightAware
06:58PM -8.3470 -35.3600 39° Northeast 312 359 10,200 -900 Descending FlightAware
06:58PM -8.3180 -35.3370 38° Northeast 299 344 9,900 -900 Descending FlightAware
06:58PM -8.3020 -35.3250 37° Northeast 294 338 9,600 -1,440 Descending FlightAware
06:59PM -8.2750 -35.3040 38° Northeast 294 338 8,900 -1,620 Descending FlightAware
06:59PM -8.2500 -35.2840 38° Northeast 294 338 8,300 -1,620 Descending FlightAware
07:00PM -8.2340 -35.2710 39° Northeast 291 335 7,900 -1,620 Descending FlightAware
07:00PM -8.2050 -35.2480 38° Northeast 287 330 7,200 -1,620 Descending FlightAware
07:00PM -8.1800 -35.2290 37° Northeast 283 326 6,600 -1,380 Descending FlightAware
07:01PM -8.1650 -35.2170 38° Northeast 280 322 6,300 -1,320 Descending FlightAware
07:01PM -8.1440 -35.2010 37° Northeast 278 320 5,800 -1,320 Descending FlightAware
07:01PM -8.1160 -35.1790 38° Northeast 275 316 5,200 -1,440 Descending FlightAware
07:02PM -8.0950 -35.1620 39° Northeast 273 314 4,700 -1,680 Descending FlightAware
07:02PM -8.0750 -35.1460 38° Northeast 271 312 4,200 -960 Descending FlightAware
07:03PM -8.0450 -35.1220 38° Northeast 250 288 3,900 -660 Descending FlightAware
07:03PM -8.0300 -35.1110 36° Northeast 240 276 3,700 -600 Descending FlightAware
07:03PM -8.0100 -35.0950 38° Northeast 229 264 3,500 -420 Descending FlightAware
07:04PM -7.9900 -35.0790 38° Northeast 230 265 3,400 -240 Descending FlightAware
07:04PM -7.9850 -35.0720 54° Northeast 227 261 3,400  Level FlightAware
07:04PM -7.9820 -35.0650 67° East 222 255 3,400 -420 Level FlightAware
07:04PM -7.9790 -35.0560 71° East 217 250 3,300 -600 Descending FlightAware
07:05PM -7.9720 -35.0330 73° East 215 247 3,100 -480 Descending FlightAware
07:05PM -7.9670 -35.0180 71° East 208 239 3,000 -600 Descending FlightAware
07:05PM -7.9600 -34.9970 71° East 198 228 2,700 -540 Descending FlightAware
07:06PM -7.9690 -34.9780 116° Southeast 181 208 2,600 -180 Descending FlightAware
07:06PM -7.9810 -34.9720 154° Southeast 179 206 2,600 -480 Level FlightAware
07:06PM -7.9980 -34.9660 161° South 166 191 2,300 -900 Descending FlightAware
07:07PM -8.0150 -34.9600 161° South 146 168 1,900 -900 Descending FlightAware
07:07PM -8.0250 -34.9570 163° South 139 160 1,700 -720 Descending FlightAware
07:07PM -8.0370 -34.9530 162° South 135 155 1,500 -720 Descending FlightAware
07:08PM -8.0520 -34.9480 162° South 134 154 1,200 -720 Descending FlightAware
07:08PM -8.0670 -34.9430 162° South 135 155 900 -540 Descending FlightAware
07:08PM -8.0750 -34.9400 160° South 134 154 800 -720 Descending FlightAware
07:09PM -8.0910 -34.9350 163° South 134 154 400 -900 Descending FlightAware
07:09PM -8.1030 -34.9310 162° South 133 153 200 -780 Descending FlightAware
07:09PM -8.1150 -34.9270 162° South 134 154 -600 Descending FlightAware
07:10PM -8.1250 -34.9240 163° South 133 153  Level FlightAware
07:10PM -8.1180 -34.9120 59° Northeast 133 153  Level FlightAware
07:11PM -8.1320 -34.9210 212° Southwest 133 153  Level FlightAware
07:11PM -8.1240 -34.9110 51° Northeast 133 153  Level FlightAware
07:14PM -8.1268 -34.9230 257° West  Level Estimated
07:15PM -8.1268 -34.9230 166° South  Level Estimated